Biguacu, Brazil
Current Conditions -  °F | °C
As of 2:00 AM on Thursday 27 Nov 2014 (Local Time) from SBFL Reporting Station
Scattered Clouds Scattered Clouds  
Wind Chill: 73°   Ceiling: Unl
Heat Index: 73°   Visibility: 6mi
Dew Point: 64°   Wind: 6mph
Humidity: 73%   Direction: 170°S
Pressure: 29.88"   Gusts: NA
Location:  27.5°S, 48.66°W
Report Text: SBFL 270400Z 17005KT 9999 SCT015 23/18 Q1012
Loading
Personal Weather Stations






























Interactive Weather Map New forecast layout! Learn more

10-Day Weather Forecast

Advertisements
Track Severe Weather on mobile